Claresholm, Canada
Current Conditions -  °F | °C
As of 7:00 PM on Friday 19 Dec 2014 (Local Time) from CZPC Reporting Station
Overcast Overcast  
Wind Chill: 27°   Ceiling: 23000
Heat Index: 37°   Visibility: 9mi
Dew Point: 27°   Wind: 22mph
Humidity: 65%   Direction: 250°WSW
Pressure: 29.73"   Gusts: 29mph
Location:  50.03°N, 113.58°W
Report Text: CZPC 200200Z AUTO 25019G25KT 9SM OVC230 03/M03 A2973 RMK SLP095
Loading
Personal Weather Stations






























Interactive Weather Map New forecast layout! Learn more

10-Day Weather Forecast

Advertisements
Track Severe Weather on mobile